createdAt,value
2022-09-05T00:01:37.484Z,19.77
2022-09-05T00:04:24.183Z,19.78
2022-09-05T00:06:56.991Z,19.77
2022-09-05T00:09:40.937Z,19.75
2022-09-05T00:12:09.867Z,19.71
2022-09-05T00:15:15.957Z,19.66
2022-09-05T00:19:30.532Z,19.66
2022-09-05T00:24:28.311Z,19.69
2022-09-05T00:24:28.797Z,19.68
2022-09-05T00:26:53.018Z,19.62
2022-09-05T00:31:08.115Z,19.61
2022-09-05T00:32:28.773Z,19.60
2022-09-05T00:35:08.407Z,19.59
2022-09-05T00:37:45.462Z,19.58
2022-09-05T00:40:33.512Z,19.56
2022-09-05T00:43:02.145Z,19.56
2022-09-05T00:45:50.419Z,19.54
2022-09-05T00:48:25.626Z,19.50
2022-09-05T00:51:00.661Z,19.42
2022-09-05T00:53:40.649Z,19.40
2022-09-05T00:56:06.871Z,19.32
2022-09-05T00:58:46.687Z,19.33
2022-09-05T01:01:31.173Z,19.31
2022-09-05T01:04:20.814Z,19.29
2022-09-05T01:07:05.953Z,19.30
2022-09-05T01:09:44.656Z,19.25
2022-09-05T01:12:29.557Z,19.18
2022-09-05T01:15:18.841Z,19.17
2022-09-05T01:17:50.017Z,19.14
2022-09-05T01:20:29.863Z,19.08
2022-09-05T01:22:58.385Z,19.06
2022-09-05T01:25:26.546Z,19.05
2022-09-05T01:29:14.527Z,19.03
2022-09-05T01:30:50.940Z,19.00
2022-09-05T01:33:17.251Z,18.97
2022-09-05T01:35:56.196Z,18.94
2022-09-05T01:39:26.118Z,18.86
2022-09-05T01:41:37.357Z,18.86
2022-09-05T01:44:22.305Z,18.82
2022-09-05T01:47:07.302Z,18.77
2022-09-05T01:49:56.467Z,18.74
2022-09-05T01:52:33.632Z,18.75
2022-09-05T01:54:59.963Z,18.73
2022-09-05T01:57:29.251Z,18.76
2022-09-05T01:59:59.273Z,18.80
2022-09-05T02:02:38.934Z,18.77
2022-09-05T02:05:47.606Z,18.76
2022-09-05T02:08:11.800Z,18.79
2022-09-05T02:10:50.045Z,18.81
2022-09-05T02:13:16.410Z,18.85
2022-09-05T02:15:58.987Z,18.87
2022-09-05T02:18:37.847Z,18.86
2022-09-05T02:21:09.051Z,18.87
2022-09-05T02:23:44.407Z,18.87
2022-09-05T02:26:26.305Z,18.86
2022-09-05T02:28:55.887Z,18.88
2022-09-05T02:31:25.411Z,18.85
2022-09-05T02:34:14.771Z,18.86
2022-09-05T02:36:59.762Z,18.85
2022-09-05T02:45:03.343Z,18.83
2022-09-05T02:45:12.664Z,18.85
2022-09-05T02:45:26.584Z,18.87
2022-09-05T02:48:16.199Z,18.89
2022-09-05T02:57:23.893Z,18.88
2022-09-05T02:57:35.599Z,18.85
2022-09-05T02:57:41.756Z,18.88
2022-09-05T02:59:36.790Z,18.80
2022-09-05T03:02:25.206Z,18.77
2022-09-05T03:05:04.578Z,18.70
2022-09-05T03:07:31.596Z,18.66
2022-09-05T03:10:16.207Z,18.64
2022-09-05T03:13:01.474Z,18.61
2022-09-05T03:15:27.746Z,18.60
2022-09-05T03:18:20.631Z,18.54
2022-09-05T03:21:13.133Z,18.49
2022-09-05T03:23:45.854Z,18.49
2022-09-05T03:26:15.162Z,18.43
2022-09-05T03:29:04.463Z,18.41
2022-09-05T03:31:56.746Z,18.39
2022-09-05T03:34:53.591Z,18.36
2022-09-05T03:37:19.851Z,18.33
2022-09-05T03:40:14.553Z,18.34
2022-09-05T03:43:00.543Z,18.28
2022-09-05T03:45:44.427Z,18.28
2022-09-05T03:48:27.828Z,18.30
2022-09-05T03:55:52.828Z,18.30
2022-09-05T03:57:15.589Z,18.33
2022-09-05T03:57:26.661Z,18.31
2022-09-05T03:59:49.422Z,18.31
2022-09-05T04:04:31.770Z,18.30
2022-09-05T04:08:30.678Z,18.31
2022-09-05T04:08:30.973Z,18.32
2022-09-05T04:11:06.269Z,18.29
2022-09-05T04:13:35.535Z,18.29
2022-09-05T04:16:09.694Z,18.30
2022-09-05T04:18:41.815Z,18.27
2022-09-05T04:21:11.062Z,18.26
2022-09-05T04:23:51.145Z,18.26
2022-09-05T04:26:22.630Z,18.25
2022-09-05T04:28:53.129Z,18.21
2022-09-05T04:31:40.450Z,18.20
2022-09-05T04:34:06.727Z,18.14
2022-09-05T04:36:34.390Z,18.12
2022-09-05T04:39:18.701Z,18.11
2022-09-05T04:41:50.660Z,18.08
2022-09-05T04:44:27.166Z,18.04
2022-09-05T04:47:13.101Z,18.02
2022-09-05T04:49:44.977Z,17.99
2022-09-05T04:52:31.989Z,17.95
2022-09-05T04:55:07.688Z,17.88
2022-09-05T04:57:51.857Z,17.86
2022-09-05T05:06:02.542Z,17.83
2022-09-05T05:06:19.958Z,17.78
2022-09-05T05:06:38.339Z,17.75
2022-09-05T05:09:22.748Z,17.73
2022-09-05T05:18:04.036Z,17.71
2022-09-05T05:18:13.560Z,17.71
2022-09-05T05:18:37.607Z,17.73
2022-09-05T05:20:53.735Z,17.70
2022-09-05T05:23:28.432Z,17.68
2022-09-05T05:25:56.746Z,17.65
2022-09-05T05:28:29.055Z,17.65
2022-09-05T05:31:01.941Z,17.69
2022-09-05T05:33:32.030Z,17.72
2022-09-05T05:36:00.097Z,17.73
2022-09-05T05:38:43.157Z,17.74
2022-09-05T05:41:35.615Z,17.77
2022-09-05T05:44:09.994Z,17.79
2022-09-05T05:46:39.501Z,17.83
2022-09-05T05:49:24.339Z,17.86
2022-09-05T05:52:05.366Z,17.89
2022-09-05T05:54:45.492Z,17.92
2022-09-05T05:57:22.792Z,17.95
2022-09-05T06:00:01.445Z,17.98
2022-09-05T06:02:46.714Z,18.02
2022-09-05T06:05:46.198Z,18.07
2022-09-05T06:11:20.455Z,18.12
2022-09-05T06:14:50.040Z,18.16
2022-09-05T06:14:57.618Z,18.23
2022-09-05T06:17:04.211Z,18.30
2022-09-05T06:22:04.172Z,18.34
2022-09-05T06:22:42.432Z,18.38
2022-09-05T06:25:27.607Z,18.44
2022-09-05T06:28:04.657Z,18.52
2022-09-05T06:30:47.474Z,18.58
2022-09-05T06:33:29.449Z,18.66
2022-09-05T06:36:11.398Z,18.72
2022-09-05T06:38:42.510Z,18.79
2022-09-05T06:41:27.443Z,18.84
2022-09-05T06:44:13.616Z,18.93
2022-09-05T06:46:54.900Z,19.01
2022-09-05T06:49:42.879Z,19.05
2022-09-05T06:52:30.695Z,19.10
2022-09-05T06:54:59.591Z,19.14
2022-09-05T06:57:47.543Z,19.20
2022-09-05T07:00:23.733Z,19.27
2022-09-05T07:03:18.946Z,19.34
2022-09-05T07:05:55.924Z,19.41
2022-09-05T07:08:44.259Z,19.55
2022-09-05T07:11:16.481Z,19.64
2022-09-05T07:13:52.891Z,19.72
2022-09-05T07:16:32.228Z,19.79
2022-09-05T07:19:12.219Z,19.91
2022-09-05T07:21:44.367Z,19.98
2022-09-05T07:24:44.211Z,20.03
2022-09-05T07:27:06.635Z,20.12
2022-09-05T07:29:39.806Z,20.22
2022-09-05T07:32:22.403Z,20.39
2022-09-05T07:34:51.723Z,20.44
2022-09-05T07:37:27.319Z,20.46
2022-09-05T07:39:57.013Z,20.51
2022-09-05T07:42:26.137Z,20.60
2022-09-05T07:44:57.835Z,20.67
2022-09-05T07:47:27.929Z,20.77
2022-09-05T07:50:34.432Z,20.86
2022-09-05T07:56:46.753Z,20.93
2022-09-05T07:57:05.168Z,21.03
2022-09-05T07:58:21.309Z,21.10
2022-09-05T08:00:51.858Z,21.20
2022-09-05T08:03:22.994Z,21.28
2022-09-05T08:05:53.740Z,21.37
2022-09-05T08:08:23.146Z,21.47
2022-09-05T08:11:23.542Z,21.57
2022-09-05T08:13:48.115Z,21.67
2022-09-05T08:16:17.065Z,21.87
2022-09-05T08:18:52.703Z,21.97
2022-09-05T08:21:27.661Z,22.16
2022-09-05T08:24:13.697Z,22.37
2022-09-05T08:26:47.260Z,22.64
2022-09-05T08:29:30.702Z,22.94
2022-09-05T08:32:09.254Z,23.22
2022-09-05T08:34:45.379Z,23.42
2022-09-05T08:37:20.818Z,23.73
2022-09-05T08:39:50.252Z,23.99
2022-09-05T08:44:36.152Z,24.22
2022-09-05T08:46:40.698Z,24.52
2022-09-05T08:48:40.207Z,24.79
2022-09-05T08:51:23.022Z,24.99
2022-09-05T08:53:52.940Z,25.23
2022-09-05T08:56:23.824Z,25.44
2022-09-05T08:59:28.041Z,25.57
2022-09-05T09:02:45.584Z,25.71
2022-09-05T09:05:14.184Z,25.95
2022-09-05T09:07:51.459Z,26.20
2022-09-05T09:10:25.790Z,26.36
2022-09-05T09:13:11.958Z,26.58
2022-09-05T09:15:54.087Z,26.74
2022-09-05T09:18:21.343Z,26.89
2022-09-05T09:20:49.103Z,27.06
2022-09-05T09:23:32.017Z,27.17
2022-09-05T09:26:24.672Z,27.38
2022-09-05T09:29:03.958Z,27.57
2022-09-05T09:31:37.105Z,27.73
2022-09-05T09:34:22.967Z,27.87
2022-09-05T09:36:59.341Z,28.12
2022-09-05T09:39:44.356Z,28.28
2022-09-05T09:42:32.438Z,28.47
2022-09-05T09:45:28.719Z,28.63
2022-09-05T09:48:12.490Z,28.84
2022-09-05T09:50:59.258Z,29.11
2022-09-05T09:53:36.975Z,29.28
2022-09-05T09:56:22.551Z,29.46
2022-09-05T09:58:54.650Z,29.66
2022-09-05T10:01:53.436Z,29.88
2022-09-05T10:10:34.568Z,30.11
2022-09-05T10:10:46.917Z,30.38
2022-09-05T10:11:02.349Z,30.55
2022-09-05T10:13:26.754Z,30.74
2022-09-05T10:15:56.452Z,30.93
2022-09-05T10:18:36.094Z,31.01
2022-09-05T10:21:25.719Z,31.26
2022-09-05T10:24:10.805Z,31.43
2022-09-05T10:26:56.642Z,31.67
2022-09-05T10:29:41.787Z,31.88
2022-09-05T10:35:07.670Z,31.97
2022-09-05T10:35:22.518Z,32.20
2022-09-05T10:38:10.750Z,32.40
2022-09-05T10:40:45.481Z,32.57
2022-09-05T10:43:30.037Z,32.68
2022-09-05T10:45:56.307Z,32.66
2022-09-05T10:48:27.664Z,32.80
2022-09-05T10:50:56.824Z,33.03
2022-09-05T10:53:39.455Z,33.22
2022-09-05T10:56:12.125Z,33.16
2022-09-05T11:01:38.968Z,33.28
2022-09-05T11:02:30.287Z,33.45
2022-09-05T11:04:46.677Z,33.62
2022-09-05T11:07:39.262Z,33.77
2022-09-05T11:10:08.673Z,33.94
2022-09-05T11:12:57.587Z,34.11
2022-09-05T11:15:30.171Z,33.97
2022-09-05T11:18:05.595Z,34.15
2022-09-05T11:20:38.075Z,34.16
2022-09-05T11:23:15.152Z,34.23
2022-09-05T11:25:42.986Z,34.16
2022-09-05T11:28:22.004Z,34.28
2022-09-05T11:30:53.208Z,34.33
2022-09-05T11:39:52.945Z,34.21
2022-09-05T11:40:02.933Z,34.23
2022-09-05T11:40:09.520Z,34.04
2022-09-05T11:42:29.442Z,34.31
2022-09-05T11:45:18.575Z,34.40
2022-09-05T11:47:47.554Z,34.60
2022-09-05T11:50:31.535Z,34.62
2022-09-05T11:53:16.567Z,34.91
2022-09-05T11:55:52.947Z,34.89
2022-09-05T11:58:45.244Z,35.03
2022-09-05T12:01:38.324Z,35.23
2022-09-05T12:04:19.319Z,35.35
2022-09-05T12:07:07.346Z,35.54
2022-09-05T12:10:02.368Z,35.63
2022-09-05T12:12:41.767Z,35.57
2022-09-05T12:15:09.598Z,35.29
2022-09-05T12:17:56.408Z,35.12
2022-09-05T12:20:28.867Z,35.40
2022-09-05T12:23:36.864Z,35.53
2022-09-05T12:27:36.637Z,35.80
2022-09-05T12:29:33.394Z,35.84
2022-09-05T12:35:22.527Z,36.01
2022-09-05T12:36:11.850Z,36.17
2022-09-05T12:40:59.837Z,35.96
2022-09-05T12:41:38.939Z,36.15
2022-09-05T12:44:39.061Z,36.25
2022-09-05T12:46:24.234Z,36.43
2022-09-05T12:49:06.921Z,36.44
2022-09-05T12:51:46.097Z,36.47
2022-09-05T12:54:34.260Z,36.48
2022-09-05T13:01:12.767Z,36.56
2022-09-05T13:03:06.576Z,36.69
2022-09-05T13:03:28.170Z,36.53
2022-09-05T13:05:53.992Z,36.57
2022-09-05T13:08:23.405Z,36.65
2022-09-05T13:14:46.213Z,36.72
2022-09-05T13:14:47.028Z,36.90
2022-09-05T13:16:35.272Z,37.06
2022-09-05T13:19:07.719Z,37.07
2022-09-05T13:21:45.505Z,37.15
2022-09-05T13:24:14.382Z,36.77
2022-09-05T13:26:59.553Z,36.73
2022-09-05T13:29:44.223Z,36.31
2022-09-05T13:38:01.557Z,36.15
2022-09-05T13:38:10.168Z,35.92
2022-09-05T13:38:47.734Z,35.53
2022-09-05T13:41:27.728Z,35.58
2022-09-05T13:44:00.540Z,35.55
2022-09-05T13:46:57.932Z,35.74
2022-09-05T13:49:31.276Z,35.86
2022-09-05T13:52:01.589Z,35.98
2022-09-05T13:54:48.810Z,36.08
2022-09-05T13:57:32.124Z,36.03
2022-09-05T14:00:28.031Z,36.08
2022-09-05T14:03:38.258Z,36.11
2022-09-05T14:06:24.869Z,36.01
2022-09-05T14:12:02.693Z,35.93
2022-09-05T14:17:53.131Z,35.64
2022-09-05T14:20:49.467Z,35.75
2022-09-05T14:23:18.083Z,35.87
2022-09-05T14:25:49.978Z,35.84
2022-09-05T14:28:23.038Z,35.91
2022-09-05T14:34:49.315Z,35.78
2022-09-05T14:37:42.571Z,35.62
2022-09-05T14:37:49.519Z,35.78
2022-09-05T14:40:29.728Z,35.97
2022-09-05T14:43:15.593Z,35.83
2022-09-05T14:45:51.653Z,35.76
2022-09-05T14:48:39.421Z,35.72
2022-09-05T14:51:08.574Z,35.73
2022-09-05T15:02:36.632Z,35.49
2022-09-05T15:02:45.421Z,35.29
2022-09-05T15:02:54.500Z,35.23
2022-09-05T15:05:11.399Z,35.19
2022-09-05T15:07:49.099Z,35.10
2022-09-05T15:12:15.504Z,35.21
2022-09-05T15:13:13.327Z,35.16
2022-09-05T15:15:41.539Z,35.24
2022-09-05T15:18:10.433Z,35.29
2022-09-05T15:20:44.574Z,35.03
2022-09-05T15:23:16.831Z,34.89
2022-09-05T15:25:48.242Z,34.69
2022-09-05T15:28:22.904Z,34.37
2022-09-05T15:30:57.548Z,34.38
2022-09-05T15:33:25.165Z,34.38
2022-09-05T15:35:52.030Z,34.36
2022-09-05T15:38:30.283Z,34.59
2022-09-05T15:41:09.410Z,34.72
2022-09-05T15:43:51.739Z,34.85
2022-09-05T15:46:29.513Z,35.00
2022-09-05T15:49:03.213Z,35.03
2022-09-05T15:51:34.367Z,34.99
2022-09-05T15:54:05.182Z,34.83
2022-09-05T15:56:38.002Z,34.84
2022-09-05T15:59:04.863Z,34.78
2022-09-05T16:01:58.917Z,34.92
2022-09-05T16:07:02.775Z,34.63
2022-09-05T16:10:45.240Z,34.28
2022-09-05T16:10:46.929Z,34.42
2022-09-05T16:12:44.578Z,34.14
2022-09-05T16:20:51.017Z,34.12
2022-09-05T16:23:26.466Z,33.93
2022-09-05T16:23:31.786Z,33.99
2022-09-05T16:23:43.156Z,33.83
2022-09-05T16:26:12.282Z,33.72
2022-09-05T16:28:46.627Z,33.62
2022-09-05T16:31:16.683Z,33.49
2022-09-05T16:33:43.538Z,33.45
2022-09-05T16:36:16.180Z,33.33
2022-09-05T16:38:50.515Z,33.25
2022-09-05T16:41:24.550Z,33.19
2022-09-05T16:44:03.990Z,33.06
2022-09-05T16:46:34.053Z,33.03
2022-09-05T16:49:12.103Z,32.96
2022-09-05T16:51:43.283Z,32.83
2022-09-05T16:54:18.518Z,32.76
2022-09-05T16:56:50.069Z,32.71
2022-09-05T16:59:21.479Z,32.62
2022-09-05T17:02:06.255Z,32.57
2022-09-05T17:04:42.382Z,32.47
2022-09-05T17:07:32.798Z,32.40
2022-09-05T17:10:09.895Z,32.26
2022-09-05T17:12:38.478Z,32.18
2022-09-05T17:15:14.222Z,32.00
2022-09-05T17:18:19.790Z,31.86
2022-09-05T17:20:33.099Z,31.72
2022-09-05T17:29:01.307Z,31.58
2022-09-05T17:29:25.035Z,31.42
2022-09-05T17:29:47.278Z,31.29
2022-09-05T17:31:53.626Z,31.14
2022-09-05T17:34:26.864Z,31.04
2022-09-05T17:37:17.332Z,30.90
2022-09-05T17:39:56.596Z,30.79
2022-09-05T17:43:01.265Z,30.65
2022-09-05T17:45:45.734Z,30.48
2022-09-05T17:48:12.881Z,30.33
2022-09-05T17:50:53.995Z,30.18
2022-09-05T17:53:26.444Z,29.98
2022-09-05T17:55:54.763Z,29.84
2022-09-05T17:58:49.674Z,29.65
2022-09-05T18:01:22.351Z,29.50
2022-09-05T18:03:54.278Z,29.33
2022-09-05T18:06:20.949Z,29.19
2022-09-05T18:08:51.609Z,29.06
2022-09-05T18:11:25.692Z,28.92
2022-09-05T18:13:55.179Z,28.72
2022-09-05T18:16:30.943Z,28.57
2022-09-05T18:19:33.120Z,28.47
2022-09-05T18:21:51.378Z,28.36
2022-09-05T18:24:36.351Z,28.25
2022-09-05T18:27:37.871Z,28.09
2022-09-05T18:30:06.153Z,27.94
2022-09-05T18:32:39.940Z,27.82
2022-09-05T18:35:15.641Z,27.72
2022-09-05T18:38:05.263Z,27.63
2022-09-05T18:40:47.625Z,27.49
2022-09-05T18:43:37.894Z,27.34
2022-09-05T18:46:13.800Z,27.30
2022-09-05T18:48:44.375Z,27.20
2022-09-05T18:51:32.084Z,27.07
2022-09-05T18:54:03.499Z,26.95
2022-09-05T18:57:09.744Z,26.82
2022-09-05T18:59:34.602Z,26.70
2022-09-05T19:02:02.895Z,26.61
2022-09-05T19:04:40.361Z,26.53
2022-09-05T19:07:11.162Z,26.43
2022-09-05T19:09:39.910Z,26.33
2022-09-05T19:12:31.816Z,26.30
2022-09-05T19:15:01.325Z,26.29
2022-09-05T19:17:38.496Z,26.31
2022-09-05T19:20:32.728Z,26.25
2022-09-05T19:23:10.281Z,26.14
2022-09-05T19:25:40.409Z,26.05
2022-09-05T19:35:10.115Z,25.97
2022-09-05T19:36:56.367Z,25.95
2022-09-05T19:37:13.238Z,25.88
2022-09-05T19:37:35.481Z,25.82
2022-09-05T19:44:17.214Z,25.76
2022-09-05T19:47:28.495Z,25.66
2022-09-05T19:47:43.858Z,25.53
2022-09-05T19:48:18.136Z,25.51
2022-09-05T19:50:47.288Z,25.45
2022-09-05T19:53:15.584Z,25.44
2022-09-05T19:55:42.650Z,25.44
2022-09-05T19:58:19.278Z,25.38
2022-09-05T20:01:01.447Z,25.37
2022-09-05T20:03:28.394Z,25.31
2022-09-05T20:06:02.045Z,25.25
2022-09-05T20:08:34.134Z,25.17
2022-09-05T20:11:04.824Z,25.09
2022-09-05T20:13:31.442Z,25.03
2022-09-05T20:15:57.750Z,25.03
2022-09-05T20:18:28.688Z,25.03
2022-09-05T20:21:02.328Z,25.05
2022-09-05T20:23:29.698Z,25.09
2022-09-05T20:25:56.533Z,25.01
2022-09-05T20:28:24.907Z,25.09
2022-09-05T20:30:54.246Z,25.16
2022-09-05T20:33:32.765Z,25.14
2022-09-05T20:43:10.004Z,25.28
2022-09-05T20:43:23.028Z,25.32
2022-09-05T20:43:30.259Z,25.40
2022-09-05T20:44:37.461Z,25.44
2022-09-05T20:52:40.790Z,25.46
2022-09-05T20:54:14.298Z,25.45
2022-09-05T20:54:27.632Z,25.47
2022-09-05T20:56:01.293Z,25.48
2022-09-05T20:58:31.429Z,25.46
2022-09-05T21:01:15.586Z,25.47
2022-09-05T21:03:58.810Z,25.45
2022-09-05T21:06:26.485Z,25.44
2022-09-05T21:08:55.270Z,25.42
2022-09-05T21:11:28.899Z,25.39
2022-09-05T21:13:56.642Z,25.39
2022-09-05T21:16:27.823Z,25.32
2022-09-05T21:18:54.376Z,25.30
2022-09-05T21:21:30.033Z,25.29
2022-09-05T21:24:16.889Z,25.32
2022-09-05T21:26:45.695Z,25.31
2022-09-05T21:29:11.955Z,25.32
2022-09-05T21:31:46.460Z,25.28
2022-09-05T21:34:22.597Z,25.29
2022-09-05T21:36:54.154Z,25.21
2022-09-05T21:39:37.371Z,25.14
2022-09-05T21:42:17.031Z,25.11
2022-09-05T21:47:47.219Z,25.03
2022-09-05T21:47:52.100Z,25.00
2022-09-05T21:50:31.316Z,24.94
2022-09-05T21:53:01.843Z,24.89
2022-09-05T21:59:16.403Z,24.85
2022-09-05T21:59:27.967Z,24.75
2022-09-05T22:01:20.246Z,24.71
2022-09-05T22:04:07.389Z,24.63
2022-09-05T22:06:33.687Z,24.50
2022-09-05T22:09:13.114Z,24.43
2022-09-05T22:11:40.840Z,24.48
2022-09-05T22:14:08.916Z,24.30
2022-09-05T22:16:37.159Z,24.13
2022-09-05T22:19:10.815Z,24.03
2022-09-05T22:21:39.126Z,24.12
2022-09-05T22:24:08.862Z,24.04
2022-09-05T22:27:12.776Z,23.95
2022-09-05T22:29:42.957Z,23.91
2022-09-05T22:32:13.760Z,23.93
2022-09-05T22:34:40.136Z,23.96
2022-09-05T22:37:06.430Z,23.96
2022-09-05T22:39:36.507Z,23.98
2022-09-05T22:42:03.980Z,23.95
2022-09-05T22:44:36.907Z,23.91
2022-09-05T22:47:03.350Z,23.88
2022-09-05T22:49:29.619Z,23.86
2022-09-05T22:51:56.255Z,23.84
2022-09-05T22:54:23.727Z,23.83
2022-09-05T22:56:49.981Z,23.83
2022-09-05T22:59:17.237Z,23.80
2022-09-05T23:01:43.890Z,23.82
2022-09-05T23:04:10.304Z,23.82
2022-09-05T23:06:36.670Z,23.77
2022-09-05T23:09:03.537Z,23.67
2022-09-05T23:11:29.903Z,23.74
2022-09-05T23:13:56.346Z,23.66
2022-09-05T23:16:22.712Z,23.64
2022-09-05T23:18:49.056Z,23.59
2022-09-05T23:21:15.570Z,23.56
2022-09-05T23:23:42.236Z,23.55
2022-09-05T23:26:11.395Z,23.42
2022-09-05T23:28:42.933Z,23.47
2022-09-05T23:31:10.553Z,23.43
2022-09-05T23:33:36.890Z,23.42
2022-09-05T23:36:04.488Z,23.22
2022-09-05T23:38:31.378Z,23.30
2022-09-05T23:41:01.358Z,23.28
2022-09-05T23:43:28.024Z,23.23
2022-09-05T23:45:54.665Z,23.24
2022-09-05T23:48:21.341Z,23.26
2022-09-05T23:50:48.171Z,23.25
2022-09-05T23:53:14.776Z,23.25
2022-09-05T23:55:41.751Z,23.32
2022-09-05T23:58:08.342Z,23.33
